sensor_id;sensor_type;location;lat;lon;timestamp;pressure;altitude;pressure_sealevel;temperature;humidity
8051;BME280;4068;42.158;24.732;2023-01-25T00:00:15;101130.59;;;2.18;100.00
8051;BME280;4068;42.158;24.732;2023-01-25T00:02:40;101138.44;;;2.18;100.00
8051;BME280;4068;42.158;24.732;2023-01-25T00:05:06;101138.28;;;2.26;100.00
8051;BME280;4068;42.158;24.732;2023-01-25T00:07:31;101136.53;;;2.25;100.00
8051;BME280;4068;42.158;24.732;2023-01-25T00:09:57;101129.88;;;2.10;100.00
8051;BME280;4068;42.158;24.732;2023-01-25T00:12:22;101104.19;;;1.84;100.00
8051;BME280;4068;42.158;24.732;2023-01-25T00:14:48;101099.91;;;1.81;100.00
8051;BME280;4068;42.158;24.732;2023-01-25T00:17:13;101118.97;;;1.86;100.00
8051;BME280;4068;42.158;24.732;2023-01-25T00:19:39;101137.16;;;1.94;100.00
8051;BME280;4068;42.158;24.732;2023-01-25T00:22:04;101132.63;;;2.04;100.00
8051;BME280;4068;42.158;24.732;2023-01-25T00:24:30;101131.81;;;2.00;100.00
8051;BME280;4068;42.158;24.732;2023-01-25T00:26:55;101137.00;;;2.02;100.00
8051;BME280;4068;42.158;24.732;2023-01-25T00:29:21;101131.84;;;1.99;100.00
8051;BME280;4068;42.158;24.732;2023-01-25T00:31:53;101136.22;;;1.98;100.00
8051;BME280;4068;42.158;24.732;2023-01-25T00:39:19;101128.59;;;1.86;100.00
8051;BME280;4068;42.158;24.732;2023-01-25T00:41:44;101140.69;;;1.92;100.00
8051;BME280;4068;42.158;24.732;2023-01-25T00:44:10;101129.50;;;1.83;100.00
8051;BME280;4068;42.158;24.732;2023-01-25T00:46:35;101143.38;;;1.88;100.00
8051;BME280;4068;42.158;24.732;2023-01-25T00:49:01;101139.94;;;1.85;100.00
8051;BME280;4068;42.158;24.732;2023-01-25T00:51:27;101140.75;;;1.88;100.00
8051;BME280;4068;42.158;24.732;2023-01-25T00:53:52;101144.19;;;1.90;100.00
8051;BME280;4068;42.158;24.732;2023-01-25T00:56:18;101113.97;;;1.76;100.00
8051;BME280;4068;42.158;24.732;2023-01-25T00:58:43;101146.78;;;1.92;100.00
8051;BME280;4068;42.158;24.732;2023-01-25T01:01:09;101147.66;;;1.93;100.00
8051;BME280;4068;42.158;24.732;2023-01-25T01:03:35;101140.66;;;1.93;100.00
8051;BME280;4068;42.158;24.732;2023-01-25T01:06:06;101143.28;;;1.93;100.00
8051;BME280;4068;42.158;24.732;2023-01-25T01:08:33;101135.34;;;1.98;100.00
8051;BME280;4068;42.158;24.732;2023-01-25T01:11:02;101136.41;;;1.87;100.00
8051;BME280;4068;42.158;24.732;2023-01-25T01:13:29;101132.09;;;1.85;100.00
8051;BME280;4068;42.158;24.732;2023-01-25T01:15:55;101120.88;;;1.80;100.00
8051;BME280;4068;42.158;24.732;2023-01-25T01:18:21;101130.38;;;1.85;100.00
8051;BME280;4068;42.158;24.732;2023-01-25T01:20:52;101135.56;;;1.87;100.00
8051;BME280;4068;42.158;24.732;2023-01-25T01:23:18;101091.47;;;1.67;100.00
8051;BME280;4068;42.158;24.732;2023-01-25T01:25:44;101118.19;;;1.83;100.00
8051;BME280;4068;42.158;24.732;2023-01-25T01:28:10;101111.19;;;1.83;100.00
8051;BME280;4068;42.158;24.732;2023-01-25T01:30:38;101114.66;;;1.84;100.00
8051;BME280;4068;42.158;24.732;2023-01-25T01:33:04;101110.34;;;1.83;100.00
8051;BME280;4068;42.158;24.732;2023-01-25T01:35:30;101110.41;;;1.80;100.00
8051;BME280;4068;42.158;24.732;2023-01-25T01:37:56;101084.59;;;1.61;100.00
8051;BME280;4068;42.158;24.732;2023-01-25T01:40:21;101114.03;;;1.72;100.00
8051;BME280;4068;42.158;24.732;2023-01-25T01:43:06;101105.31;;;1.72;100.00
8051;BME280;4068;42.158;24.732;2023-01-25T01:48:30;101114.00;;;1.74;100.00
8051;BME280;4068;42.158;24.732;2023-01-25T01:51:00;101108.78;;;1.74;100.00
8051;BME280;4068;42.158;24.732;2023-01-25T01:53:27;101109.56;;;1.78;100.00
8051;BME280;4068;42.158;24.732;2023-01-25T01:55:56;101108.78;;;1.74;100.00
8051;BME280;4068;42.158;24.732;2023-01-25T01:58:24;101102.53;;;1.81;100.00
8051;BME280;4068;42.158;24.732;2023-01-25T02:00:49;101108.63;;;1.82;100.00
8051;BME280;4068;42.158;24.732;2023-01-25T02:03:15;101110.41;;;1.80;100.00
8051;BME280;4068;42.158;24.732;2023-01-25T02:05:53;101110.28;;;1.86;100.00
8051;BME280;4068;42.158;24.732;2023-01-25T02:08:20;101117.28;;;1.85;100.00
8051;BME280;4068;42.158;24.732;2023-01-25T02:10:48;101102.59;;;1.77;100.00
8051;BME280;4068;42.158;24.732;2023-01-25T02:13:14;101101.69;;;1.79;100.00
8051;BME280;4068;42.158;24.732;2023-01-25T02:15:45;101110.22;;;1.89;100.00
8051;BME280;4068;42.158;24.732;2023-01-25T02:18:12;101084.19;;;1.83;100.00
8051;BME280;4068;42.158;24.732;2023-01-25T02:20:41;101103.25;;;1.88;100.00
8051;BME280;4068;42.158;24.732;2023-01-25T02:25:55;101096.25;;;1.90;100.00
8051;BME280;4068;42.158;24.732;2023-01-25T02:29:09;101102.34;;;1.90;100.00
8051;BME280;4068;42.158;24.732;2023-01-25T02:31:16;101100.53;;;1.94;100.00
8051;BME280;4068;42.158;24.732;2023-01-25T02:33:41;101104.00;;;1.95;100.00
8051;BME280;4068;42.158;24.732;2023-01-25T02:38:34;101104.72;;;2.03;100.00
8051;BME280;4068;42.158;24.732;2023-01-25T02:41:07;101098.25;;;2.19;100.00
8051;BME280;4068;42.158;24.732;2023-01-25T02:43:34;101106.38;;;2.07;100.00
8051;BME280;4068;42.158;24.732;2023-01-25T02:46:15;101107.22;;;2.07;100.00
8051;BME280;4068;42.158;24.732;2023-01-25T02:48:42;101103.84;;;2.04;100.00
8051;BME280;4068;42.158;24.732;2023-01-25T02:51:08;101102.97;;;2.02;100.00
8051;BME280;4068;42.158;24.732;2023-01-25T02:53:34;101104.59;;;2.09;100.00
8051;BME280;4068;42.158;24.732;2023-01-25T02:55:59;101082.25;;;1.93;100.00
8051;BME280;4068;42.158;24.732;2023-01-25T02:58:25;101094.19;;;2.06;100.00
8051;BME280;4068;42.158;24.732;2023-01-25T03:00:51;101105.50;;;2.06;100.00
8051;BME280;4068;42.158;24.732;2023-01-25T03:03:17;101109.75;;;2.12;100.00
8051;BME280;4068;42.158;24.732;2023-01-25T03:05:42;101110.75;;;2.06;100.00
8051;BME280;4068;42.158;24.732;2023-01-25T03:08:08;101089.91;;;2.02;100.00
8051;BME280;4068;42.158;24.732;2023-01-25T03:10:33;101098.34;;;2.15;100.00
8051;BME280;4068;42.158;24.732;2023-01-25T03:12:59;101113.31;;;2.08;100.00
8051;BME280;4068;42.158;24.732;2023-01-25T03:15:24;101100.38;;;2.02;100.00
8051;BME280;4068;42.158;24.732;2023-01-25T03:17:50;101098.31;;;2.16;100.00
8051;BME280;4068;42.158;24.732;2023-01-25T03:20:15;101096.78;;;2.06;100.00
8051;BME280;4068;42.158;24.732;2023-01-25T03:22:41;101097.63;;;2.10;100.00
8051;BME280;4068;42.158;24.732;2023-01-25T03:25:06;101074.16;;;2.03;100.00
8051;BME280;4068;42.158;24.732;2023-01-25T03:27:32;101063.16;;;1.87;100.00
8051;BME280;4068;42.158;24.732;2023-01-25T03:29:57;101091.72;;;1.98;100.00
8051;BME280;4068;42.158;24.732;2023-01-25T03:32:23;101066.09;;;1.70;100.00
8051;BME280;4068;42.158;24.732;2023-01-25T03:34:48;101100.66;;;1.86;100.00
8051;BME280;4068;42.158;24.732;2023-01-25T03:37:14;101070.28;;;1.79;100.00
8051;BME280;4068;42.158;24.732;2023-01-25T03:39:39;101080.72;;;1.81;100.00
8051;BME280;4068;42.158;24.732;2023-01-25T03:42:05;101085.25;;;1.71;100.00
8051;BME280;4068;42.158;24.732;2023-01-25T03:44:31;101106.84;;;1.82;100.00
8051;BME280;4068;42.158;24.732;2023-01-25T03:46:56;101101.59;;;1.84;100.00
8051;BME280;4068;42.158;24.732;2023-01-25T03:49:22;101103.31;;;1.85;100.00
8051;BME280;4068;42.158;24.732;2023-01-25T03:51:47;101098.97;;;1.84;100.00
8051;BME280;4068;42.158;24.732;2023-01-25T03:54:12;101081.75;;;1.72;100.00
8051;BME280;4068;42.158;24.732;2023-01-25T03:56:38;101104.13;;;1.88;100.00
8051;BME280;4068;42.158;24.732;2023-01-25T03:59:03;101108.44;;;1.91;100.00
8051;BME280;4068;42.158;24.732;2023-01-25T04:01:29;101103.22;;;1.91;100.00
8051;BME280;4068;42.158;24.732;2023-01-25T04:03:54;101110.09;;;1.97;100.00
8051;BME280;4068;42.158;24.732;2023-01-25T04:06:20;101093.19;;;2.12;100.00
8051;BME280;4068;42.158;24.732;2023-01-25T04:08:45;101075.06;;;2.01;100.00
8051;BME280;4068;42.158;24.732;2023-01-25T04:11:11;101099.25;;;2.15;100.00
8051;BME280;4068;42.158;24.732;2023-01-25T04:13:36;101107.94;;;2.16;100.00
8051;BME280;4068;42.158;24.732;2023-01-25T04:16:03;101110.53;;;2.17;100.00
8051;BME280;4068;42.158;24.732;2023-01-25T04:18:29;101105.50;;;2.06;100.00
8051;BME280;4068;42.158;24.732;2023-01-25T04:20:56;101108.09;;;2.08;100.00
8051;BME280;4068;42.158;24.732;2023-01-25T04:23:23;101088.38;;;1.92;100.00
8051;BME280;4068;42.158;24.732;2023-01-25T04:25:53;101108.28;;;1.99;100.00
8051;BME280;4068;42.158;24.732;2023-01-25T04:28:19;101110.69;;;2.08;100.00
8051;BME280;4068;42.158;24.732;2023-01-25T04:30:44;101111.63;;;2.07;100.00
8051;BME280;4068;42.158;24.732;2023-01-25T04:33:10;101069.38;;;1.82;100.00
8051;BME280;4068;42.158;24.732;2023-01-25T04:35:37;101108.22;;;2.02;100.00
8051;BME280;4068;42.158;24.732;2023-01-25T04:38:02;101111.72;;;2.01;100.00
8051;BME280;4068;42.158;24.732;2023-01-25T04:40:28;101125.00;;;1.92;100.00
8051;BME280;4068;42.158;24.732;2023-01-25T04:42:54;101132.94;;;1.87;100.00
8051;BME280;4068;42.158;24.732;2023-01-25T04:45:20;101131.34;;;1.80;100.00
8051;BME280;4068;42.158;24.732;2023-01-25T04:47:45;101117.66;;;1.64;100.00
8051;BME280;4068;42.158;24.732;2023-01-25T04:50:10;101126.34;;;1.66;100.00
8051;BME280;4068;42.158;24.732;2023-01-25T04:52:36;101108.16;;;1.58;100.00
8051;BME280;4068;42.158;24.732;2023-01-25T04:55:01;101123.84;;;1.61;100.00
8051;BME280;4068;42.158;24.732;2023-01-25T04:57:27;101125.41;;;1.70;100.00
8051;BME280;4068;42.158;24.732;2023-01-25T04:59:52;101124.53;;;1.69;100.00
8051;BME280;4068;42.158;24.732;2023-01-25T05:02:18;101100.41;;;1.53;100.00
8051;BME280;4068;42.158;24.732;2023-01-25T05:04:43;101127.25;;;1.63;100.00
8051;BME280;4068;42.158;24.732;2023-01-25T05:07:08;101128.06;;;1.68;100.00
8051;BME280;4068;42.158;24.732;2023-01-25T05:09:34;101117.56;;;1.70;100.00
8051;BME280;4068;42.158;24.732;2023-01-25T05:11:59;101103.22;;;1.44;100.00
8051;BME280;4068;42.158;24.732;2023-01-25T05:14:25;101099.63;;;1.50;100.00
8051;BME280;4068;42.158;24.732;2023-01-25T05:16:50;101132.53;;;1.62;100.00
8051;BME280;4068;42.158;24.732;2023-01-25T05:19:15;101123.03;;;1.56;100.00
8051;BME280;4068;42.158;24.732;2023-01-25T05:21:41;101099.78;;;1.41;100.00
8051;BME280;4068;42.158;24.732;2023-01-25T05:24:29;101139.50;;;1.63;100.00
8051;BME280;4068;42.158;24.732;2023-01-25T05:26:55;101143.84;;;1.62;100.00
8051;BME280;4068;42.158;24.732;2023-01-25T05:29:40;101147.22;;;1.69;100.00
8051;BME280;4068;42.158;24.732;2023-01-25T05:32:12;101140.19;;;1.71;100.00
8051;BME280;4068;42.158;24.732;2023-01-25T05:34:38;101141.09;;;1.70;100.00
8051;BME280;4068;42.158;24.732;2023-01-25T05:37:05;101141.88;;;1.75;100.00
8051;BME280;4068;42.158;24.732;2023-01-25T05:39:31;101141.03;;;1.73;100.00
8051;BME280;4068;42.158;24.732;2023-01-25T05:41:56;101140.97;;;1.76;100.00
8051;BME280;4068;42.158;24.732;2023-01-25T05:44:22;101143.53;;;1.79;100.00
8051;BME280;4068;42.158;24.732;2023-01-25T05:46:48;101149.63;;;1.81;100.00
8051;BME280;4068;42.158;24.732;2023-01-25T05:49:13;101142.78;;;1.74;100.00
8051;BME280;4068;42.158;24.732;2023-01-25T05:51:40;101147.13;;;1.73;100.00
8051;BME280;4068;42.158;24.732;2023-01-25T05:54:06;101116.72;;;1.68;100.00
8051;BME280;4068;42.158;24.732;2023-01-25T05:56:33;101152.13;;;1.87;100.00
8051;BME280;4068;42.158;24.732;2023-01-25T05:59:15;101153.84;;;1.88;100.00
8051;BME280;4068;42.158;24.732;2023-01-25T06:01:45;101158.16;;;1.89;100.00
8051;BME280;4068;42.158;24.732;2023-01-25T06:04:14;101155.63;;;1.86;100.00
8051;BME280;4068;42.158;24.732;2023-01-25T06:06:40;101153.06;;;1.83;100.00
8051;BME280;4068;42.158;24.732;2023-01-25T06:09:06;101159.22;;;1.79;100.00
8051;BME280;4068;42.158;24.732;2023-01-25T06:11:32;101125.41;;;1.70;100.00
8051;BME280;4068;42.158;24.732;2023-01-25T06:13:57;101147.63;;;1.94;100.00
8051;BME280;4068;42.158;24.732;2023-01-25T06:16:23;101136.56;;;1.80;100.00
8051;BME280;4068;42.158;24.732;2023-01-25T06:18:48;101150.38;;;1.86;100.00
8051;BME280;4068;42.158;24.732;2023-01-25T06:21:14;101152.94;;;1.89;100.00
8051;BME280;4068;42.158;24.732;2023-01-25T06:23:39;101143.44;;;1.84;100.00
8051;BME280;4068;42.158;24.732;2023-01-25T06:26:08;101131.16;;;1.89;100.00
8051;BME280;4068;42.158;24.732;2023-01-25T06:28:36;101150.97;;;2.02;100.00
8051;BME280;4068;42.158;24.732;2023-01-25T06:31:13;101122.50;;;1.85;100.00
8051;BME280;4068;42.158;24.732;2023-01-25T06:33:40;101119.78;;;1.92;100.00
8051;BME280;4068;42.158;24.732;2023-01-25T06:36:10;101152.50;;;2.13;100.00
8051;BME280;4068;42.158;24.732;2023-01-25T06:38:36;101161.06;;;2.22;100.00
8051;BME280;4068;42.158;24.732;2023-01-25T06:41:04;101121.13;;;2.11;100.00
8051;BME280;4068;42.158;24.732;2023-01-25T06:43:31;101120.19;;;2.14;100.00
8051;BME280;4068;42.158;24.732;2023-01-25T06:45:58;101151.19;;;2.35;100.00
8051;BME280;4068;42.158;24.732;2023-01-25T06:48:24;101140.88;;;2.26;100.00
8051;BME280;4068;42.158;24.732;2023-01-25T06:50:54;101152.97;;;2.33;100.00
8051;BME280;4068;42.158;24.732;2023-01-25T06:53:20;101146.00;;;2.34;100.00
8051;BME280;4068;42.158;24.732;2023-01-25T06:55:45;101114.78;;;2.23;100.00
8051;BME280;4068;42.158;24.732;2023-01-25T06:58:11;101133.03;;;2.26;100.00
8051;BME280;4068;42.158;24.732;2023-01-25T07:00:39;101138.13;;;2.34;100.00
8051;BME280;4068;42.158;24.732;2023-01-25T07:03:04;101162.31;;;2.45;100.00
8051;BME280;4068;42.158;24.732;2023-01-25T07:05:29;101158.69;;;2.52;100.00
8051;BME280;4068;42.158;24.732;2023-01-25T07:07:55;101144.75;;;2.50;100.00
8051;BME280;4068;42.158;24.732;2023-01-25T07:10:20;101153.69;;;2.40;100.00
8051;BME280;4068;42.158;24.732;2023-01-25T07:12:46;101151.78;;;2.48;100.00
8051;BME280;4068;42.158;24.732;2023-01-25T07:15:11;101164.72;;;2.56;100.00
8051;BME280;4068;42.158;24.732;2023-01-25T07:17:37;101169.22;;;2.49;100.00
8051;BME280;4068;42.158;24.732;2023-01-25T07:20:02;101167.44;;;2.51;100.00
8051;BME280;4068;42.158;24.732;2023-01-25T07:22:28;101140.56;;;2.41;100.00
8051;BME280;4068;42.158;24.732;2023-01-25T07:24:53;101159.59;;;2.51;100.00
8051;BME280;4068;42.158;24.732;2023-01-25T07:27:21;101152.94;;;2.35;100.00
8051;BME280;4068;42.158;24.732;2023-01-25T07:29:47;101174.56;;;2.45;100.00
8051;BME280;4068;42.158;24.732;2023-01-25T07:32:12;101168.50;;;2.42;100.00
8051;BME280;4068;42.158;24.732;2023-01-25T07:34:38;101167.59;;;2.44;100.00
8051;BME280;4068;42.158;24.732;2023-01-25T07:37:04;101137.38;;;2.27;100.00
8051;BME280;4068;42.158;24.732;2023-01-25T07:39:30;101175.16;;;2.57;100.00
8051;BME280;4068;42.158;24.732;2023-01-25T07:41:55;101170.75;;;2.59;100.00
8051;BME280;4068;42.158;24.732;2023-01-25T07:44:21;101172.63;;;2.53;100.00
8051;BME280;4068;42.158;24.732;2023-01-25T07:46:46;101171.53;;;2.63;100.00
8051;BME280;4068;42.158;24.732;2023-01-25T07:49:11;101163.63;;;2.66;100.00
8051;BME280;4068;42.158;24.732;2023-01-25T07:51:37;101179.19;;;2.74;99.94
8051;BME280;4068;42.158;24.732;2023-01-25T07:54:03;101167.59;;;2.84;97.85
8051;BME280;4068;42.158;24.732;2023-01-25T07:56:31;101161.84;;;2.68;97.62
8051;BME280;4068;42.158;24.732;2023-01-25T07:58:58;101176.38;;;2.82;97.79
8051;BME280;4068;42.158;24.732;2023-01-25T08:01:26;101182.63;;;2.76;97.57
8051;BME280;4068;42.158;24.732;2023-01-25T08:03:53;101152.28;;;2.66;98.56
8051;BME280;4068;42.158;24.732;2023-01-25T08:06:31;101175.34;;;2.89;97.06
8051;BME280;4068;42.158;24.732;2023-01-25T08:09:01;101190.81;;;3.01;96.89
8051;BME280;4068;42.158;24.732;2023-01-25T08:11:29;101189.06;;;3.00;96.44
8051;BME280;4068;42.158;24.732;2023-01-25T08:13:55;101185.97;;;2.83;96.63
8051;BME280;4068;42.158;24.732;2023-01-25T08:16:22;101175.34;;;2.89;96.81
8051;BME280;4068;42.158;24.732;2023-01-25T08:18:49;101180.22;;;3.06;96.77
8051;BME280;4068;42.158;24.732;2023-01-25T08:21:16;101180.16;;;3.07;95.71
8051;BME280;4068;42.158;24.732;2023-01-25T08:23:41;101179.44;;;3.02;96.00
8051;BME280;4068;42.158;24.732;2023-01-25T08:26:10;101189.88;;;3.04;95.69
8051;BME280;4068;42.158;24.732;2023-01-25T08:28:35;101193.38;;;3.03;95.81
8051;BME280;4068;42.158;24.732;2023-01-25T08:31:19;101182.66;;;3.14;95.17
8051;BME280;4068;42.158;24.732;2023-01-25T08:33:46;101162.63;;;3.11;95.04
8051;BME280;4068;42.158;24.732;2023-01-25T08:36:13;101188.03;;;3.07;95.36
8051;BME280;4068;42.158;24.732;2023-01-25T08:38:39;101170.03;;;2.92;95.83
8051;BME280;4068;42.158;24.732;2023-01-25T08:41:16;101180.13;;;3.09;95.58
8051;BME280;4068;42.158;24.732;2023-01-25T08:43:42;101166.41;;;2.98;95.35
8051;BME280;4068;42.158;24.732;2023-01-25T08:46:09;101186.28;;;3.06;96.09
8051;BME280;4068;42.158;24.732;2023-01-25T08:48:34;101153.56;;;2.87;95.16
8051;BME280;4068;42.158;24.732;2023-01-25T08:51:00;101188.28;;;2.97;96.11
8051;BME280;4068;42.158;24.732;2023-01-25T08:53:27;101176.78;;;3.04;96.34
8051;BME280;4068;42.158;24.732;2023-01-25T08:55:53;101183.50;;;3.14;95.59
8051;BME280;4068;42.158;24.732;2023-01-25T08:58:18;101179.44;;;3.38;94.80
8051;BME280;4068;42.158;24.732;2023-01-25T09:00:47;101188.47;;;3.26;95.21
8051;BME280;4068;42.158;24.732;2023-01-25T09:03:13;101181.13;;;3.41;95.07
8051;BME280;4068;42.158;24.732;2023-01-25T09:05:39;101171.78;;;3.29;95.05
8051;BME280;4068;42.158;24.732;2023-01-25T09:08:07;101170.16;;;3.23;95.40
8051;BME280;4068;42.158;24.732;2023-01-25T09:10:33;101158.63;;;3.31;95.24
8051;BME280;4068;42.158;24.732;2023-01-25T09:12:59;101125.91;;;3.11;94.93
8051;BME280;4068;42.158;24.732;2023-01-25T09:15:25;101151.47;;;3.37;96.17
8051;BME280;4068;42.158;24.732;2023-01-25T09:17:52;101154.22;;;3.67;95.07
8051;BME280;4068;42.158;24.732;2023-01-25T09:20:17;101158.84;;;3.90;94.08
8051;BME280;4068;42.158;24.732;2023-01-25T09:22:43;101148.88;;;4.03;93.81
8051;BME280;4068;42.158;24.732;2023-01-25T09:25:09;101145.38;;;4.04;92.57
8051;BME280;4068;42.158;24.732;2023-01-25T09:27:34;101156.44;;;3.83;92.36
8051;BME280;4068;42.158;24.732;2023-01-25T09:30:00;101127.22;;;3.63;92.86
8051;BME280;4068;42.158;24.732;2023-01-25T09:32:25;101150.84;;;3.63;92.90
8051;BME280;4068;42.158;24.732;2023-01-25T09:34:51;101130.81;;;3.59;93.92
8051;BME280;4068;42.158;24.732;2023-01-25T09:37:16;101137.75;;;3.62;93.68
8051;BME280;4068;42.158;24.732;2023-01-25T09:39:44;101130.91;;;3.56;94.72
8051;BME280;4068;42.158;24.732;2023-01-25T09:45:34;101121.31;;;3.88;94.23
8051;BME280;4068;42.158;24.732;2023-01-25T09:53:29;101109.94;;;4.19;92.08
8051;BME280;4068;42.158;24.732;2023-01-25T09:56:23;101112.78;;;4.11;91.51
8051;BME280;4068;42.158;24.732;2023-01-25T09:58:52;101104.94;;;4.10;93.22
8051;BME280;4068;42.158;24.732;2023-01-25T10:01:24;101110.00;;;4.16;91.69
8051;BME280;4068;42.158;24.732;2023-01-25T10:04:13;101096.94;;;4.14;91.46
8051;BME280;4068;42.158;24.732;2023-01-25T10:06:42;101090.78;;;4.15;91.79
8051;BME280;4068;42.158;24.732;2023-01-25T10:11:36;101029.63;;;3.82;91.18
8051;BME280;4068;42.158;24.732;2023-01-25T10:14:11;101088.06;;;4.19;91.36
8051;BME280;4068;42.158;24.732;2023-01-25T10:22:18;101066.44;;;4.39;90.85
8051;BME280;4068;42.158;24.732;2023-01-25T10:30:52;101061.59;;;4.55;88.97
8051;BME280;4068;42.158;24.732;2023-01-25T10:33:19;101050.47;;;4.46;90.29
8051;BME280;4068;42.158;24.732;2023-01-25T10:35:47;101053.59;;;4.29;90.82
8051;BME280;4068;42.158;24.732;2023-01-25T10:38:34;101046.63;;;4.57;90.47
8051;BME280;4068;42.158;24.732;2023-01-25T10:41:09;101046.59;;;4.58;89.10
8051;BME280;4068;42.158;24.732;2023-01-25T10:43:37;101048.00;;;4.42;88.46
8051;BME280;4068;42.158;24.732;2023-01-25T10:46:09;101026.41;;;4.59;89.26
8051;BME280;4068;42.158;24.732;2023-01-25T10:48:40;101039.84;;;4.78;87.63
8051;BME280;4068;42.158;24.732;2023-01-25T10:51:06;101029.09;;;4.57;87.70
8051;BME280;4068;42.158;24.732;2023-01-25T10:58:35;101036.28;;;4.52;88.62
8051;BME280;4068;42.158;24.732;2023-01-25T11:01:03;101031.59;;;4.34;89.13
8051;BME280;4068;42.158;24.732;2023-01-25T11:03:41;101037.47;;;4.42;89.33
8051;BME280;4068;42.158;24.732;2023-01-25T11:06:10;101030.81;;;4.58;88.96
8051;BME280;4068;42.158;24.732;2023-01-25T11:08:41;101022.66;;;4.68;89.04
8051;BME280;4068;42.158;24.732;2023-01-25T11:17:02;101006.81;;;4.96;86.63
8051;BME280;4068;42.158;24.732;2023-01-25T11:19:32;101002.59;;;4.92;86.98
8051;BME280;4068;42.158;24.732;2023-01-25T11:21:59;100994.50;;;4.71;89.12
8051;BME280;4068;42.158;24.732;2023-01-25T11:24:30;100974.22;;;4.75;89.01
8051;BME280;4068;42.158;24.732;2023-01-25T11:29:41;100948.22;;;4.39;89.63
8051;BME280;4068;42.158;24.732;2023-01-25T11:35:32;100975.13;;;4.74;89.07
8051;BME280;4068;42.158;24.732;2023-01-25T11:38:09;100972.44;;;4.75;89.63
8051;BME280;4068;42.158;24.732;2023-01-25T11:41:20;100982.63;;;4.59;89.59
8051;BME280;4068;42.158;24.732;2023-01-25T11:46:35;100974.53;;;4.65;90.72
8051;BME280;4068;42.158;24.732;2023-01-25T11:55:06;100958.84;;;4.89;89.59
8051;BME280;4068;42.158;24.732;2023-01-25T11:57:59;100952.00;;;5.10;88.32
8051;BME280;4068;42.158;24.732;2023-01-25T12:06:12;100945.97;;;5.07;86.97
8051;BME280;4068;42.158;24.732;2023-01-25T12:27:53;100915.25;;;4.57;89.34
8051;BME280;4068;42.158;24.732;2023-01-25T12:33:42;100903.16;;;4.78;89.17
8051;BME280;4068;42.158;24.732;2023-01-25T12:36:16;100907.78;;;4.96;87.84
8051;BME280;4068;42.158;24.732;2023-01-25T12:39:03;100905.78;;;4.78;87.59
8051;BME280;4068;42.158;24.732;2023-01-25T12:41:52;100911.34;;;4.69;87.82
8051;BME280;4068;42.158;24.732;2023-01-25T12:44:43;100904.69;;;4.58;89.00
8051;BME280;4068;42.158;24.732;2023-01-25T12:47:36;100909.66;;;4.68;88.84
8051;BME280;4068;42.158;24.732;2023-01-25T12:50:29;100903.84;;;4.58;89.05
8051;BME280;4068;42.158;24.732;2023-01-25T12:53:01;100900.19;;;4.62;89.16
8051;BME280;4068;42.158;24.732;2023-01-25T12:55:29;100907.25;;;4.60;88.78
8051;BME280;4068;42.158;24.732;2023-01-25T13:05:52;100907.38;;;4.30;89.74
8051;BME280;4068;42.158;24.732;2023-01-25T13:08:23;100896.41;;;4.17;90.28
8051;BME280;4068;42.158;24.732;2023-01-25T13:11:04;100898.88;;;3.95;91.78
8051;BME280;4068;42.158;24.732;2023-01-25T13:13:30;100878.63;;;3.98;92.62
8051;BME280;4068;42.158;24.732;2023-01-25T13:18:48;100894.84;;;3.83;92.27
8051;BME280;4068;42.158;24.732;2023-01-25T13:26:45;100887.38;;;3.97;92.81
8051;BME280;4068;42.158;24.732;2023-01-25T13:31:57;100878.50;;;4.02;93.58
8051;BME280;4068;42.158;24.732;2023-01-25T13:37:20;100884.75;;;3.99;93.08
8051;BME280;4068;42.158;24.732;2023-01-25T13:39:54;100882.97;;;4.00;92.77
8051;BME280;4068;42.158;24.732;2023-01-25T13:42:25;100884.91;;;3.93;92.23
8051;BME280;4068;42.158;24.732;2023-01-25T13:45:02;100894.75;;;3.86;92.29
8051;BME280;4068;42.158;24.732;2023-01-25T13:47:31;100890.47;;;3.84;92.70
8051;BME280;4068;42.158;24.732;2023-01-25T13:50:24;100894.72;;;3.88;93.12
8051;BME280;4068;42.158;24.732;2023-01-25T13:58:10;100892.56;;;3.72;94.86
8051;BME280;4068;42.158;24.732;2023-01-25T14:00:47;100886.13;;;3.83;96.93
8051;BME280;4068;42.158;24.732;2023-01-25T14:03:13;100887.50;;;3.94;95.93
8051;BME280;4068;42.158;24.732;2023-01-25T14:05:38;100854.19;;;3.68;92.70
8051;BME280;4068;42.158;24.732;2023-01-25T14:08:04;100887.91;;;3.82;93.61
8051;BME280;4068;42.158;24.732;2023-01-25T14:10:30;100889.88;;;3.74;94.35
8051;BME280;4068;42.158;24.732;2023-01-25T14:12:59;100876.19;;;3.64;94.55
8051;BME280;4068;42.158;24.732;2023-01-25T14:15:30;100880.25;;;3.44;95.67
8051;BME280;4068;42.158;24.732;2023-01-25T14:20:44;100881.25;;;3.40;96.05
8051;BME280;4068;42.158;24.732;2023-01-25T14:23:21;100893.00;;;3.27;96.00
8051;BME280;4068;42.158;24.732;2023-01-25T14:25:47;100881.59;;;3.30;96.50
8051;BME280;4068;42.158;24.732;2023-01-25T14:28:13;100877.28;;;3.27;96.04
8051;BME280;4068;42.158;24.732;2023-01-25T14:30:39;100862.81;;;3.12;96.64
8051;BME280;4068;42.158;24.732;2023-01-25T14:33:21;100867.38;;;3.07;96.54
8051;BME280;4068;42.158;24.732;2023-01-25T14:35:52;100874.44;;;3.03;96.65
8051;BME280;4068;42.158;24.732;2023-01-25T14:38:34;100882.56;;;2.94;97.76
8051;BME280;4068;42.158;24.732;2023-01-25T14:43:37;100877.47;;;2.89;98.27
8051;BME280;4068;42.158;24.732;2023-01-25T14:48:49;100865.16;;;2.91;98.70
8051;BME280;4068;42.158;24.732;2023-01-25T14:51:43;100866.25;;;2.84;98.72
8051;BME280;4068;42.158;24.732;2023-01-25T14:56:47;100855.66;;;2.87;98.74
8051;BME280;4068;42.158;24.732;2023-01-25T15:02:15;100838.69;;;2.69;99.16
8051;BME280;4068;42.158;24.732;2023-01-25T15:04:53;100859.88;;;2.93;99.21
8051;BME280;4068;42.158;24.732;2023-01-25T15:07:46;100871.09;;;2.98;98.15
8051;BME280;4068;42.158;24.732;2023-01-25T15:10:23;100865.22;;;2.90;97.68
8051;BME280;4068;42.158;24.732;2023-01-25T15:15:33;100873.91;;;2.90;97.97
8051;BME280;4068;42.158;24.732;2023-01-25T15:18:00;100828.69;;;2.52;98.23
8051;BME280;4068;42.158;24.732;2023-01-25T15:20:37;100872.72;;;2.71;98.73
8051;BME280;4068;42.158;24.732;2023-01-25T15:23:20;100876.22;;;2.70;99.48
8051;BME280;4068;42.158;24.732;2023-01-25T15:25:58;100870.06;;;2.72;100.00